createdAt,value
2022-11-24T00:01:22.808Z,101261.84
2022-11-24T00:03:59.760Z,101267.13
2022-11-24T00:06:28.838Z,101255.75
2022-11-24T00:08:56.919Z,101255.56
2022-11-24T00:11:27.385Z,101245.97
2022-11-24T00:13:55.132Z,101230.94
2022-11-24T00:16:30.543Z,101256.31
2022-11-24T00:19:00.257Z,101227.88
2022-11-24T00:21:29.947Z,101258.56
2022-11-24T00:23:58.056Z,101218.78
2022-11-24T00:26:28.109Z,101264.59
2022-11-24T00:29:00.198Z,101260.97
2022-11-24T00:31:33.161Z,101263.78
2022-11-24T00:34:02.994Z,101250.19
2022-11-24T00:36:33.419Z,101261.66
2022-11-24T00:39:04.243Z,101279.25
2022-11-24T00:41:32.379Z,101281.03
2022-11-24T00:44:01.166Z,101281.78
2022-11-24T00:46:28.910Z,101287.94
2022-11-24T00:48:56.911Z,101278.25
2022-11-24T00:51:30.643Z,101271.34
2022-11-24T00:53:59.598Z,101249.53
2022-11-24T00:56:28.559Z,101252.50
2022-11-24T00:58:56.313Z,101282.63
2022-11-24T01:01:27.310Z,101293.44
2022-11-24T01:03:58.342Z,101289.84
2022-11-24T01:06:27.861Z,101279.31
2022-11-24T01:08:56.832Z,101294.50
2022-11-24T01:12:02.214Z,101275.94
2022-11-24T01:14:30.520Z,101262.13
2022-11-24T01:16:58.272Z,101274.75
2022-11-24T01:19:25.713Z,101271.41
2022-11-24T01:21:53.544Z,101275.72
2022-11-24T01:24:21.225Z,101281.75
2022-11-24T01:26:49.196Z,101281.59
2022-11-24T01:29:17.265Z,101264.72
2022-11-24T01:31:44.477Z,101283.19
2022-11-24T01:34:13.343Z,101282.31
2022-11-24T01:36:41.012Z,101277.78
2022-11-24T01:39:08.345Z,101276.13
2022-11-24T01:41:36.208Z,101277.03
2022-11-24T01:44:25.199Z,101268.06
2022-11-24T01:46:59.528Z,101259.94
2022-11-24T01:49:45.241Z,101287.94
2022-11-24T01:52:21.229Z,101271.09
2022-11-24T01:54:56.820Z,101280.66
2022-11-24T01:57:35.330Z,101302.34
2022-11-24T02:00:11.181Z,101295.31
2022-11-24T02:02:45.042Z,101292.63
2022-11-24T02:05:22.055Z,101296.13
2022-11-24T02:07:51.618Z,101296.03
2022-11-24T02:10:19.404Z,101294.16
2022-11-24T02:12:51.008Z,101278.25
2022-11-24T02:15:19.866Z,101285.31
2022-11-24T02:17:47.347Z,101295.72
2022-11-24T02:20:15.722Z,101288.81
2022-11-24T02:22:57.919Z,101288.66
2022-11-24T02:25:31.401Z,101268.06
2022-11-24T02:28:00.557Z,101296.38
2022-11-24T02:30:28.456Z,101277.44
2022-11-24T02:32:55.904Z,101302.47
2022-11-24T02:35:23.752Z,101291.06
2022-11-24T02:37:51.335Z,101271.97
2022-11-24T02:40:25.959Z,101282.31
2022-11-24T02:43:09.918Z,101274.34
2022-11-24T02:45:37.561Z,101288.22
2022-11-24T02:48:05.093Z,101290.88
2022-11-24T02:50:32.588Z,101285.63
2022-11-24T02:52:59.932Z,101287.22
2022-11-24T02:55:27.697Z,101291.72
2022-11-24T02:57:54.958Z,101274.16
2022-11-24T03:00:22.731Z,101275.19
2022-11-24T03:02:50.436Z,101277.50
2022-11-24T03:05:18.632Z,101295.91
2022-11-24T03:07:46.057Z,101289.81
2022-11-24T03:10:13.560Z,101297.69
2022-11-24T03:12:41.013Z,101288.84
2022-11-24T03:15:08.695Z,101288.78
2022-11-24T03:17:36.338Z,101295.06
2022-11-24T03:20:05.063Z,101291.31
2022-11-24T03:22:33.035Z,101276.91
2022-11-24T03:25:00.411Z,101300.97
2022-11-24T03:27:27.719Z,101290.41
2022-11-24T03:29:55.906Z,101301.22
2022-11-24T03:32:23.876Z,101307.53
2022-11-24T03:34:51.468Z,101302.22
2022-11-24T03:37:19.111Z,101301.22
2022-11-24T03:39:46.279Z,101302.75
2022-11-24T03:42:13.685Z,101315.88
2022-11-24T03:44:41.387Z,101320.25
2022-11-24T03:47:09.503Z,101307.94
2022-11-24T03:49:36.894Z,101322.00
2022-11-24T03:52:08.034Z,101323.81
2022-11-24T03:54:35.965Z,101299.03
2022-11-24T03:57:03.296Z,101319.59
2022-11-24T03:59:30.549Z,101314.59
2022-11-24T04:01:58.004Z,101303.22
2022-11-24T04:04:25.408Z,101300.69
2022-11-24T04:06:52.773Z,101296.44
2022-11-24T04:09:19.991Z,101312.06
2022-11-24T04:12:06.108Z,101315.41
2022-11-24T04:14:34.275Z,101310.97
2022-11-24T04:17:03.333Z,101305.00
2022-11-24T04:19:31.095Z,101310.97
2022-11-24T04:21:58.379Z,101311.84
2022-11-24T04:24:25.689Z,101302.13
2022-11-24T04:26:53.164Z,101307.31
2022-11-24T04:29:20.395Z,101303.69
2022-11-24T04:31:47.577Z,101303.91
2022-11-24T04:34:16.228Z,101304.44
2022-11-24T04:36:43.496Z,101296.50
2022-11-24T04:39:23.332Z,101300.00
2022-11-24T04:41:53.847Z,101301.69
2022-11-24T04:44:21.094Z,101294.72
2022-11-24T04:46:48.692Z,101296.50
2022-11-24T04:49:16.189Z,101278.09
2022-11-24T04:51:43.653Z,101255.00
2022-11-24T04:54:12.753Z,101280.50
2022-11-24T04:56:41.250Z,101273.50
2022-11-24T04:59:13.641Z,101287.69
2022-11-24T05:01:50.293Z,101283.38
2022-11-24T05:04:22.858Z,101288.69
2022-11-24T05:06:56.407Z,101286.09
2022-11-24T05:09:47.990Z,101270.38
2022-11-24T05:12:15.912Z,101284.41
2022-11-24T05:14:43.085Z,101287.84
2022-11-24T05:17:10.539Z,101282.53
2022-11-24T05:19:37.923Z,101292.06
2022-11-24T05:22:05.506Z,101283.22
2022-11-24T05:24:33.529Z,101279.00
2022-11-24T05:27:02.565Z,101283.38
2022-11-24T05:29:29.943Z,101288.50
2022-11-24T05:31:57.709Z,101291.31
2022-11-24T05:34:24.914Z,101296.41
2022-11-24T05:36:55.346Z,101282.06
2022-11-24T05:39:22.599Z,101312.25
2022-11-24T05:41:50.008Z,101301.91
2022-11-24T05:44:17.251Z,101305.59
2022-11-24T05:46:44.499Z,101316.91
2022-11-24T05:49:12.022Z,101312.59
2022-11-24T05:51:39.086Z,101272.22
2022-11-24T05:54:06.988Z,101300.63
2022-11-24T05:56:38.089Z,101297.16
2022-11-24T05:59:09.769Z,101305.22
2022-11-24T06:01:38.579Z,101318.63
2022-11-24T06:04:06.356Z,101322.81
2022-11-24T06:06:33.677Z,101310.56
2022-11-24T06:09:01.405Z,101314.19
2022-11-24T06:11:28.862Z,101324.59
2022-11-24T06:13:56.386Z,101302.91
2022-11-24T06:16:24.006Z,101301.94
2022-11-24T06:18:54.743Z,101290.88
2022-11-24T06:21:22.132Z,101310.50
2022-11-24T06:23:49.971Z,101292.06
2022-11-24T06:26:18.634Z,101307.41
2022-11-24T06:28:45.897Z,101307.34
2022-11-24T06:31:13.129Z,101305.56
2022-11-24T06:33:40.664Z,101300.22
2022-11-24T06:36:10.466Z,101282.72
2022-11-24T06:38:37.746Z,101297.75
2022-11-24T06:41:12.472Z,101293.50
2022-11-24T06:43:39.914Z,101289.31
2022-11-24T06:46:07.378Z,101311.47
2022-11-24T06:48:34.889Z,101287.28
2022-11-24T06:51:04.444Z,101277.41
2022-11-24T06:53:32.922Z,101301.28
2022-11-24T06:56:01.512Z,101311.81
2022-11-24T06:58:29.002Z,101306.81
2022-11-24T07:00:56.332Z,101317.66
2022-11-24T07:03:23.753Z,101317.38
2022-11-24T07:05:58.049Z,101325.38
2022-11-24T07:08:26.129Z,101300.44
2022-11-24T07:10:53.372Z,101309.03
2022-11-24T07:13:20.711Z,101312.28
2022-11-24T07:15:48.185Z,101317.84
2022-11-24T07:18:15.519Z,101320.34
2022-11-24T07:20:43.673Z,101313.34
2022-11-24T07:23:10.911Z,101301.06
2022-11-24T07:25:38.086Z,101299.56
2022-11-24T07:28:06.076Z,101307.50
2022-11-24T07:30:33.535Z,101310.09
2022-11-24T07:33:02.402Z,101306.78
2022-11-24T07:35:30.855Z,101301.53
2022-11-24T07:37:59.242Z,101329.75
2022-11-24T07:40:28.630Z,101320.16
2022-11-24T07:42:56.484Z,101319.41
2022-11-24T07:45:26.600Z,101309.81
2022-11-24T07:47:54.030Z,101300.16
2022-11-24T07:50:21.677Z,101298.50
2022-11-24T07:52:48.879Z,101289.16
2022-11-24T07:55:16.413Z,101285.34
2022-11-24T07:57:43.762Z,101296.88
2022-11-24T08:00:12.472Z,101310.09
2022-11-24T08:02:39.944Z,101307.38
2022-11-24T08:05:07.537Z,101295.72
2022-11-24T08:07:34.941Z,101310.03
2022-11-24T08:10:02.224Z,101300.50
2022-11-24T08:12:31.751Z,101302.38
2022-11-24T08:14:59.033Z,101297.94
2022-11-24T08:17:26.805Z,101295.38
2022-11-24T08:19:54.047Z,101291.97
2022-11-24T08:22:21.473Z,101268.38
2022-11-24T08:24:49.989Z,101285.34
2022-11-24T08:27:17.408Z,101295.78
2022-11-24T08:29:44.852Z,101302.72
2022-11-24T08:32:15.134Z,101281.47
2022-11-24T08:34:46.175Z,101300.94
2022-11-24T08:37:13.428Z,101282.47
2022-11-24T08:39:40.891Z,101292.22
2022-11-24T08:42:08.551Z,101238.31
2022-11-24T08:44:37.167Z,101295.88
2022-11-24T08:47:04.511Z,101292.44
2022-11-24T08:49:31.879Z,101291.72
2022-11-24T08:51:59.475Z,101294.63
2022-11-24T08:54:26.875Z,101306.00
2022-11-24T08:56:54.062Z,101296.34
2022-11-24T08:59:21.449Z,101271.00
2022-11-24T09:01:49.793Z,101259.91
2022-11-24T09:04:17.321Z,101252.19
2022-11-24T09:06:44.960Z,101256.78
2022-11-24T09:09:12.419Z,101249.88
2022-11-24T09:11:40.664Z,101213.09
2022-11-24T09:14:08.221Z,101216.28
2022-11-24T09:16:35.407Z,101206.88
2022-11-24T09:19:05.587Z,101204.59
2022-11-24T09:21:43.081Z,101209.16
2022-11-24T09:24:10.982Z,101217.84
2022-11-24T09:26:44.513Z,101227.50
2022-11-24T09:29:15.234Z,101239.28
2022-11-24T09:31:45.994Z,101236.66
2022-11-24T09:34:16.689Z,101249.84
2022-11-24T09:36:44.607Z,101231.44
2022-11-24T09:39:12.464Z,101244.91
2022-11-24T09:42:31.531Z,101229.72
2022-11-24T09:45:49.358Z,101266.88
2022-11-24T09:48:37.285Z,101259.91
2022-11-24T09:51:06.181Z,101265.31
2022-11-24T09:53:46.003Z,101248.59
2022-11-24T09:56:23.387Z,101238.00
2022-11-24T09:58:55.359Z,101222.16
2022-11-24T10:01:36.359Z,101255.94
2022-11-24T10:04:06.734Z,101254.28
2022-11-24T10:06:56.509Z,101220.09
2022-11-24T10:09:38.880Z,101221.09
2022-11-24T10:12:31.126Z,101234.38
2022-11-24T10:15:24.756Z,101227.41
2022-11-24T10:18:16.785Z,101228.38
2022-11-24T10:20:50.072Z,101217.81
2022-11-24T10:23:39.991Z,101225.84
2022-11-24T10:26:37.980Z,101217.31
2022-11-24T10:29:30.362Z,101212.06
2022-11-24T10:31:57.714Z,101221.78
2022-11-24T10:34:34.703Z,101218.38
2022-11-24T10:37:11.309Z,101215.00
2022-11-24T10:40:04.979Z,101172.78
2022-11-24T10:42:40.507Z,101184.22
2022-11-24T10:45:14.690Z,101180.72
2022-11-24T10:47:43.734Z,101173.59
2022-11-24T10:50:23.978Z,101194.13
2022-11-24T10:53:03.035Z,101200.28
2022-11-24T10:55:55.348Z,101195.19
2022-11-24T10:58:31.700Z,101176.72
2022-11-24T11:01:28.154Z,101163.63
2022-11-24T11:04:00.106Z,101161.97
2022-11-24T11:06:30.671Z,101162.00
2022-11-24T11:09:07.311Z,101132.84
2022-11-24T11:11:35.793Z,101148.81
2022-11-24T11:14:06.782Z,101133.81
2022-11-24T11:16:35.692Z,101140.22
2022-11-24T11:19:25.859Z,101137.59
2022-11-24T11:22:13.327Z,101132.31
2022-11-24T11:24:43.018Z,101134.94
2022-11-24T11:27:26.023Z,101139.38
2022-11-24T11:35:48.160Z,101129.06
2022-11-24T11:38:16.268Z,101124.72
2022-11-24T11:40:44.760Z,101118.66
2022-11-24T11:43:31.843Z,101101.25
2022-11-24T11:46:08.468Z,101097.91
2022-11-24T11:48:43.699Z,101083.06
2022-11-24T11:51:42.857Z,101100.66
2022-11-24T11:54:18.188Z,101112.84
2022-11-24T11:56:47.718Z,101082.06
2022-11-24T11:59:41.857Z,101107.72
2022-11-24T12:02:57.401Z,101106.00
2022-11-24T12:05:44.000Z,101113.03
2022-11-24T12:08:39.462Z,101113.13
2022-11-24T12:11:39.932Z,101101.81
2022-11-24T12:14:13.306Z,101097.41
2022-11-24T12:16:40.471Z,101104.41
2022-11-24T12:19:22.882Z,101106.16
2022-11-24T12:22:04.296Z,101098.31
2022-11-24T12:24:38.766Z,101107.88
2022-11-24T12:27:22.869Z,101106.97
2022-11-24T12:29:57.612Z,101084.03
2022-11-24T12:33:01.142Z,101096.41
2022-11-24T12:35:38.808Z,101114.00
2022-11-24T12:38:06.986Z,101113.13
2022-11-24T12:41:39.590Z,101118.44
2022-11-24T12:44:01.754Z,101118.34
2022-11-24T12:46:51.278Z,101116.66
2022-11-24T12:49:51.039Z,101108.81
2022-11-24T12:52:30.245Z,101109.69
2022-11-24T12:54:58.156Z,101110.56
2022-11-24T12:57:36.536Z,101122.03
2022-11-24T13:00:17.585Z,101104.47
2022-11-24T13:03:11.286Z,101121.19
2022-11-24T13:06:07.850Z,101114.13
2022-11-24T13:08:37.329Z,101104.53
2022-11-24T13:11:37.904Z,101102.78
2022-11-24T13:14:18.268Z,101099.41
2022-11-24T13:17:36.304Z,101091.50
2022-11-24T13:20:21.469Z,101073.91
2022-11-24T13:23:03.392Z,101073.94
2022-11-24T13:25:33.424Z,101068.75
2022-11-24T13:28:06.899Z,101058.16
2022-11-24T13:30:34.342Z,101061.00
2022-11-24T13:33:16.199Z,101060.19
2022-11-24T13:36:02.696Z,101061.13
2022-11-24T13:38:54.716Z,101061.03
2022-11-24T13:41:37.422Z,101034.66
2022-11-24T13:44:13.888Z,101043.59
2022-11-24T13:47:05.642Z,101045.34
2022-11-24T13:49:43.890Z,101049.72
2022-11-24T13:52:39.546Z,101054.19
2022-11-24T13:55:13.140Z,101020.66
2022-11-24T13:57:43.442Z,101038.34
2022-11-24T14:00:29.737Z,101029.56
2022-11-24T14:03:04.321Z,101035.72
2022-11-24T14:05:38.585Z,101037.56
2022-11-24T14:08:16.836Z,101024.47
2022-11-24T14:10:44.769Z,101029.63
2022-11-24T14:13:24.121Z,101018.25
2022-11-24T14:16:09.739Z,100999.84
2022-11-24T14:18:39.446Z,100999.00
2022-11-24T14:21:40.827Z,101003.44
2022-11-24T14:24:30.576Z,101007.81
2022-11-24T14:26:58.494Z,101000.75
2022-11-24T14:29:28.705Z,100971.81
2022-11-24T14:32:02.003Z,100999.03
2022-11-24T14:34:30.335Z,100994.63
2022-11-24T14:36:58.844Z,100984.91
2022-11-24T14:39:27.504Z,100984.16
2022-11-24T14:42:18.413Z,101003.25
2022-11-24T14:44:58.901Z,100992.75
2022-11-24T14:47:31.206Z,100993.56
2022-11-24T14:50:16.245Z,100990.03
2022-11-24T14:52:46.727Z,100984.94
2022-11-24T14:55:28.715Z,100984.00
2022-11-24T14:58:00.428Z,100978.66
2022-11-24T15:00:33.112Z,100983.09
2022-11-24T15:03:00.721Z,100974.31
2022-11-24T15:05:54.068Z,100975.94
2022-11-24T15:08:22.914Z,100988.28
2022-11-24T15:10:58.457Z,100983.88
2022-11-24T15:13:26.406Z,100982.16
2022-11-24T15:16:02.336Z,100986.50
2022-11-24T15:18:42.326Z,100987.31
2022-11-24T15:21:17.258Z,100955.69
2022-11-24T15:24:16.505Z,100988.91
2022-11-24T15:26:44.635Z,100973.88
2022-11-24T15:29:12.948Z,101004.59
2022-11-24T15:31:45.252Z,101009.88
2022-11-24T15:34:17.479Z,101007.09
2022-11-24T15:36:44.681Z,101003.69
2022-11-24T15:39:12.204Z,100997.47
2022-11-24T15:41:41.236Z,101003.63
2022-11-24T15:44:09.567Z,101003.56
2022-11-24T15:46:38.855Z,100983.34
2022-11-24T15:49:06.976Z,100986.03
2022-11-24T15:51:35.975Z,100983.38
2022-11-24T15:54:03.372Z,100987.63
2022-11-24T15:56:34.787Z,100984.19
2022-11-24T15:59:03.208Z,100949.91
2022-11-24T16:01:34.557Z,100991.13
2022-11-24T16:04:02.946Z,100990.06
2022-11-24T16:06:30.918Z,100994.41
2022-11-24T16:08:58.496Z,100992.59
2022-11-24T16:11:26.512Z,100991.56
2022-11-24T16:13:54.493Z,100997.72
2022-11-24T16:16:23.326Z,101000.31
2022-11-24T16:18:51.628Z,101001.22
2022-11-24T16:21:18.931Z,101010.72
2022-11-24T16:23:46.818Z,101032.53
2022-11-24T16:26:13.897Z,101036.03
2022-11-24T16:28:41.287Z,101040.38
2022-11-24T16:31:09.068Z,101050.72
2022-11-24T16:33:40.817Z,101060.31
2022-11-24T16:36:09.536Z,101055.88
2022-11-24T16:38:36.917Z,101058.53
2022-11-24T16:41:05.355Z,101051.50
2022-11-24T16:43:35.320Z,101044.50
2022-11-24T16:46:16.571Z,101032.72
2022-11-24T16:48:45.839Z,101042.34
2022-11-24T16:51:14.718Z,101053.00
2022-11-24T16:53:43.187Z,101053.78
2022-11-24T16:56:10.732Z,101053.75
2022-11-24T16:58:39.659Z,101048.53
2022-11-24T17:01:11.867Z,101053.59
2022-11-24T17:03:40.361Z,101078.03
2022-11-24T17:06:18.617Z,101089.22
2022-11-24T17:08:47.203Z,101077.78
2022-11-24T17:11:18.102Z,101070.78
2022-11-24T17:13:47.601Z,101070.69
2022-11-24T17:16:18.447Z,101072.38
2022-11-24T17:18:46.818Z,101075.00
2022-11-24T17:21:17.729Z,101074.00
2022-11-24T17:23:57.866Z,101074.84
2022-11-24T17:26:25.988Z,101066.00
2022-11-24T17:28:54.314Z,101074.03
2022-11-24T17:31:25.147Z,101063.41
2022-11-24T17:33:57.655Z,101060.97
2022-11-24T17:36:25.474Z,101058.16
2022-11-24T17:38:52.994Z,101089.69
2022-11-24T17:41:21.359Z,101090.56
2022-11-24T17:43:50.708Z,101094.91
2022-11-24T17:46:18.176Z,101085.25
2022-11-24T17:48:47.526Z,101089.69
2022-11-24T17:51:17.834Z,101097.44
2022-11-24T17:53:49.702Z,101102.66
2022-11-24T17:56:24.380Z,101103.50
2022-11-24T17:58:56.180Z,101104.44
2022-11-24T18:01:25.052Z,101099.25
2022-11-24T18:03:53.811Z,101103.63
2022-11-24T18:06:25.431Z,101097.44
2022-11-24T18:08:55.071Z,101095.72
2022-11-24T18:11:31.439Z,101101.84
2022-11-24T18:14:02.768Z,101086.91
2022-11-24T18:16:35.226Z,101077.28
2022-11-24T18:19:09.377Z,101092.31
2022-11-24T18:21:40.240Z,101105.41
2022-11-24T18:24:12.218Z,101114.13
2022-11-24T18:26:41.302Z,101098.31
2022-11-24T18:29:09.660Z,101106.19
2022-11-24T18:31:37.976Z,101110.50
2022-11-24T18:34:06.798Z,101077.97
2022-11-24T18:36:36.611Z,101107.09
2022-11-24T18:39:06.963Z,101109.78
2022-11-24T18:41:35.019Z,101113.19
2022-11-24T18:44:03.357Z,101114.97
2022-11-24T18:46:30.657Z,101085.84
2022-11-24T18:49:00.639Z,101114.06
2022-11-24T18:51:29.119Z,101107.81
2022-11-24T18:53:58.348Z,101115.75
2022-11-24T18:56:27.611Z,101111.75
2022-11-24T18:58:56.332Z,101122.16
2022-11-24T19:01:26.880Z,101127.47
2022-11-24T19:03:56.599Z,101125.63
2022-11-24T19:06:32.614Z,101129.06
2022-11-24T19:09:22.126Z,101128.19
2022-11-24T19:11:49.567Z,101125.53
2022-11-24T19:14:18.671Z,101132.63
2022-11-24T19:16:48.325Z,101122.19
2022-11-24T19:19:17.417Z,101134.34
2022-11-24T19:21:45.182Z,101144.88
2022-11-24T19:24:16.113Z,101137.00
2022-11-24T19:26:43.982Z,101135.16
2022-11-24T19:29:11.907Z,101133.41
2022-11-24T19:31:40.402Z,101129.78
2022-11-24T19:34:08.427Z,101144.88
2022-11-24T19:36:36.538Z,101153.47
2022-11-24T19:39:05.538Z,101151.66
2022-11-24T19:41:36.815Z,101150.75
2022-11-24T19:44:08.311Z,101142.81
2022-11-24T19:46:35.823Z,101160.50
2022-11-24T19:49:05.047Z,101155.34
2022-11-24T19:51:35.622Z,101151.75
2022-11-24T19:54:05.713Z,101158.75
2022-11-24T19:56:36.526Z,101141.00
2022-11-24T19:59:06.532Z,101153.31
2022-11-24T20:01:39.399Z,101161.38
2022-11-24T20:04:09.920Z,101163.84
2022-11-24T20:06:39.894Z,101118.81
2022-11-24T20:09:11.047Z,101162.91
2022-11-24T20:11:39.000Z,101140.97
2022-11-24T20:14:07.767Z,101154.13
2022-11-24T20:16:35.890Z,101145.34
2022-11-24T20:19:11.009Z,101160.25
2022-11-24T20:21:39.700Z,101151.28
2022-11-24T20:24:13.303Z,101130.97
2022-11-24T20:26:47.497Z,101167.09
2022-11-24T20:29:17.483Z,101174.03
2022-11-24T20:31:51.319Z,101168.72
2022-11-24T20:34:20.600Z,101157.09
2022-11-24T20:36:49.686Z,101175.50
2022-11-24T20:39:21.395Z,101169.22
2022-11-24T20:41:51.898Z,101185.78
2022-11-24T20:44:22.336Z,101186.50
2022-11-24T20:46:50.161Z,101172.13
2022-11-24T20:49:23.807Z,101193.13
2022-11-24T20:51:54.800Z,101193.88
2022-11-24T20:54:23.822Z,101203.47
2022-11-24T20:56:52.196Z,101202.44
2022-11-24T20:59:22.635Z,101200.69
2022-11-24T21:01:51.787Z,101207.66
2022-11-24T21:04:22.202Z,101202.44
2022-11-24T21:06:51.047Z,101202.41
2022-11-24T21:09:19.234Z,101206.03
2022-11-24T21:11:47.099Z,101198.06
2022-11-24T21:14:14.670Z,101199.78
2022-11-24T21:16:43.239Z,101204.22
2022-11-24T21:19:14.368Z,101200.78
2022-11-24T21:21:43.168Z,101184.69
2022-11-24T21:24:14.079Z,101172.13
2022-11-24T21:26:42.947Z,101219.97
2022-11-24T21:29:17.607Z,101206.88
2022-11-24T21:31:46.210Z,101214.06
2022-11-24T21:34:16.789Z,101189.34
2022-11-24T21:36:46.029Z,101208.13
2022-11-24T21:39:17.291Z,101205.53
2022-11-24T21:41:45.359Z,101216.81
2022-11-24T21:44:14.318Z,101197.38
2022-11-24T21:46:48.189Z,101211.50
2022-11-24T21:49:22.737Z,101211.63
2022-11-24T21:51:56.143Z,101207.06
2022-11-24T21:54:24.011Z,101216.81
2022-11-24T21:56:54.600Z,101217.59
2022-11-24T21:59:22.712Z,101217.47
2022-11-24T22:01:50.248Z,101230.56
2022-11-24T22:04:17.621Z,101229.59
2022-11-24T22:06:46.410Z,101234.84
2022-11-24T22:09:17.725Z,101231.31
2022-11-24T22:11:46.193Z,101240.97
2022-11-24T22:14:13.515Z,101243.38
2022-11-24T22:16:46.660Z,101238.13
2022-11-24T22:19:14.464Z,101245.88
2022-11-24T22:21:43.466Z,101240.63
2022-11-24T22:24:11.685Z,101249.28
2022-11-24T22:26:40.204Z,101238.66
2022-11-24T22:29:08.574Z,101236.00
2022-11-24T22:31:36.111Z,101237.75
2022-11-24T22:34:03.592Z,101199.84
2022-11-24T22:36:31.183Z,101220.91
2022-11-24T22:39:06.152Z,101238.47
2022-11-24T22:41:35.368Z,101245.44
2022-11-24T22:44:03.101Z,101245.25
2022-11-24T22:46:32.054Z,101247.81
2022-11-24T22:49:01.418Z,101260.03
2022-11-24T22:51:34.540Z,101253.78
2022-11-24T22:54:04.644Z,101270.47
2022-11-24T22:56:32.894Z,101262.59
2022-11-24T22:59:01.851Z,101266.19
2022-11-24T23:01:31.235Z,101266.28
2022-11-24T23:03:58.937Z,101272.53
2022-11-24T23:06:31.198Z,101260.38
2022-11-24T23:09:00.157Z,101268.22
2022-11-24T23:11:36.278Z,101269.03
2022-11-24T23:14:06.952Z,101271.59
2022-11-24T23:16:34.286Z,101280.41
2022-11-24T23:19:01.704Z,101280.31
2022-11-24T23:21:32.501Z,101280.97
2022-11-24T23:24:02.709Z,101276.50
2022-11-24T23:26:38.390Z,101265.09
2022-11-24T23:29:06.596Z,101247.34
2022-11-24T23:31:34.487Z,101278.94
2022-11-24T23:34:03.764Z,101276.25
2022-11-24T23:36:31.906Z,101288.41
2022-11-24T23:39:07.537Z,101274.22
2022-11-24T23:41:35.242Z,101264.09
2022-11-24T23:44:02.778Z,101288.00
2022-11-24T23:46:30.588Z,101288.94
2022-11-24T23:48:58.230Z,101300.31
2022-11-24T23:51:31.422Z,101297.75
2022-11-24T23:54:00.170Z,101296.00
2022-11-24T23:56:33.360Z,101295.91
2022-11-24T23:59:01.870Z,101310.81
